sensor_id;sensor_type;location;lat;lon;timestamp;temperature;humidity
7900;DHT22;3995;50.856;4.404;2022-07-06T00:00:16;23.80;44.80
7900;DHT22;3995;50.856;4.404;2022-07-06T00:02:43;23.70;44.80
7900;DHT22;3995;50.856;4.404;2022-07-06T00:05:11;23.70;44.90
7900;DHT22;3995;50.856;4.404;2022-07-06T00:07:39;23.70;44.90
7900;DHT22;3995;50.856;4.404;2022-07-06T00:10:07;23.70;44.90
7900;DHT22;3995;50.856;4.404;2022-07-06T00:12:34;23.70;45.10
7900;DHT22;3995;50.856;4.404;2022-07-06T00:15:02;23.70;45.10
7900;DHT22;3995;50.856;4.404;2022-07-06T00:17:29;23.70;45.30
7900;DHT22;3995;50.856;4.404;2022-07-06T00:19:56;23.70;45.30
7900;DHT22;3995;50.856;4.404;2022-07-06T00:22:23;23.60;45.20
7900;DHT22;3995;50.856;4.404;2022-07-06T00:24:52;23.60;45.40
7900;DHT22;3995;50.856;4.404;2022-07-06T00:27:19;23.60;45.50
7900;DHT22;3995;50.856;4.404;2022-07-06T00:29:47;23.60;45.50
7900;DHT22;3995;50.856;4.404;2022-07-06T00:32:14;23.60;45.60
7900;DHT22;3995;50.856;4.404;2022-07-06T00:34:41;23.60;45.60
7900;DHT22;3995;50.856;4.404;2022-07-06T00:37:09;23.60;45.70
7900;DHT22;3995;50.856;4.404;2022-07-06T00:39:36;23.60;45.70
7900;DHT22;3995;50.856;4.404;2022-07-06T00:42:04;23.50;45.60
7900;DHT22;3995;50.856;4.404;2022-07-06T00:44:31;23.50;45.70
7900;DHT22;3995;50.856;4.404;2022-07-06T00:46:59;23.50;45.70
7900;DHT22;3995;50.856;4.404;2022-07-06T00:49:25;23.50;45.40
7900;DHT22;3995;50.856;4.404;2022-07-06T00:52:10;23.50;45.70
7900;DHT22;3995;50.856;4.404;2022-07-06T00:54:39;23.50;45.80
7900;DHT22;3995;50.856;4.404;2022-07-06T00:57:09;23.50;45.90
7900;DHT22;3995;50.856;4.404;2022-07-06T00:59:37;23.50;46.00
7900;DHT22;3995;50.856;4.404;2022-07-06T01:02:04;23.50;45.90
7900;DHT22;3995;50.856;4.404;2022-07-06T01:04:31;23.50;46.40
7900;DHT22;3995;50.856;4.404;2022-07-06T01:07:00;23.50;45.70
7900;DHT22;3995;50.856;4.404;2022-07-06T01:09:27;23.50;45.80
7900;DHT22;3995;50.856;4.404;2022-07-06T01:11:54;23.40;45.70
7900;DHT22;3995;50.856;4.404;2022-07-06T01:14:23;23.50;45.70
7900;DHT22;3995;50.856;4.404;2022-07-06T01:16:50;23.50;45.60
7900;DHT22;3995;50.856;4.404;2022-07-06T01:19:18;23.40;45.50
7900;DHT22;3995;50.856;4.404;2022-07-06T01:21:47;23.40;45.50
7900;DHT22;3995;50.856;4.404;2022-07-06T01:24:14;23.40;45.50
7900;DHT22;3995;50.856;4.404;2022-07-06T01:26:41;23.40;45.70
7900;DHT22;3995;50.856;4.404;2022-07-06T01:29:08;23.40;45.50
7900;DHT22;3995;50.856;4.404;2022-07-06T01:31:41;23.40;45.50
7900;DHT22;3995;50.856;4.404;2022-07-06T01:34:12;23.40;45.30
7900;DHT22;3995;50.856;4.404;2022-07-06T01:36:40;23.40;45.30
7900;DHT22;3995;50.856;4.404;2022-07-06T01:39:09;23.40;45.50
7900;DHT22;3995;50.856;4.404;2022-07-06T01:41:37;23.30;45.50
7900;DHT22;3995;50.856;4.404;2022-07-06T01:44:05;23.30;45.50
7900;DHT22;3995;50.856;4.404;2022-07-06T01:46:32;23.30;45.70
7900;DHT22;3995;50.856;4.404;2022-07-06T01:49:00;23.30;45.70
7900;DHT22;3995;50.856;4.404;2022-07-06T01:51:28;23.30;45.30
7900;DHT22;3995;50.856;4.404;2022-07-06T01:53:55;23.30;45.20
7900;DHT22;3995;50.856;4.404;2022-07-06T01:56:24;23.30;45.20
7900;DHT22;3995;50.856;4.404;2022-07-06T01:58:51;23.30;45.30
7900;DHT22;3995;50.856;4.404;2022-07-06T02:01:19;23.20;45.30
7900;DHT22;3995;50.856;4.404;2022-07-06T02:03:47;23.20;45.40
7900;DHT22;3995;50.856;4.404;2022-07-06T02:06:14;23.20;45.50
7900;DHT22;3995;50.856;4.404;2022-07-06T02:08:42;23.20;45.50
7900;DHT22;3995;50.856;4.404;2022-07-06T02:11:10;23.20;45.50
7900;DHT22;3995;50.856;4.404;2022-07-06T02:13:39;23.10;45.50
7900;DHT22;3995;50.856;4.404;2022-07-06T02:16:06;23.10;45.50
7900;DHT22;3995;50.856;4.404;2022-07-06T02:18:33;23.00;45.50
7900;DHT22;3995;50.856;4.404;2022-07-06T02:21:00;23.00;45.60
7900;DHT22;3995;50.856;4.404;2022-07-06T02:23:28;23.00;45.70
7900;DHT22;3995;50.856;4.404;2022-07-06T02:25:55;23.00;45.70
7900;DHT22;3995;50.856;4.404;2022-07-06T02:28:22;23.00;45.80
7900;DHT22;3995;50.856;4.404;2022-07-06T02:30:50;23.00;45.80
7900;DHT22;3995;50.856;4.404;2022-07-06T02:33:18;23.00;45.90
7900;DHT22;3995;50.856;4.404;2022-07-06T02:35:45;22.90;45.80
7900;DHT22;3995;50.856;4.404;2022-07-06T02:38:12;22.90;45.90
7900;DHT22;3995;50.856;4.404;2022-07-06T02:40:40;22.90;45.90
7900;DHT22;3995;50.856;4.404;2022-07-06T02:43:07;22.80;45.90
7900;DHT22;3995;50.856;4.404;2022-07-06T02:45:34;22.90;46.00
7900;DHT22;3995;50.856;4.404;2022-07-06T02:48:03;22.80;46.00
7900;DHT22;3995;50.856;4.404;2022-07-06T02:50:30;22.80;46.10
7900;DHT22;3995;50.856;4.404;2022-07-06T02:52:57;22.80;46.20
7900;DHT22;3995;50.856;4.404;2022-07-06T02:55:26;22.70;46.10
7900;DHT22;3995;50.856;4.404;2022-07-06T02:57:53;22.70;46.20
7900;DHT22;3995;50.856;4.404;2022-07-06T03:00:21;22.80;46.30
7900;DHT22;3995;50.856;4.404;2022-07-06T03:02:48;22.70;46.30
7900;DHT22;3995;50.856;4.404;2022-07-06T03:05:17;22.70;46.30
7900;DHT22;3995;50.856;4.404;2022-07-06T03:07:43;22.70;46.40
7900;DHT22;3995;50.856;4.404;2022-07-06T03:10:12;22.60;46.40
7900;DHT22;3995;50.856;4.404;2022-07-06T03:12:39;22.70;46.50
7900;DHT22;3995;50.856;4.404;2022-07-06T03:15:08;22.60;47.10
7900;DHT22;3995;50.856;4.404;2022-07-06T03:17:35;22.60;46.90
7900;DHT22;3995;50.856;4.404;2022-07-06T03:20:04;22.60;46.70
7900;DHT22;3995;50.856;4.404;2022-07-06T03:22:32;22.60;46.70
7900;DHT22;3995;50.856;4.404;2022-07-06T03:25:00;22.60;46.70
7900;DHT22;3995;50.856;4.404;2022-07-06T03:27:27;22.60;46.70
7900;DHT22;3995;50.856;4.404;2022-07-06T03:29:54;22.60;46.80
7900;DHT22;3995;50.856;4.404;2022-07-06T03:32:22;22.60;46.90
7900;DHT22;3995;50.856;4.404;2022-07-06T03:34:49;22.50;46.80
7900;DHT22;3995;50.856;4.404;2022-07-06T03:37:16;22.50;46.80
7900;DHT22;3995;50.856;4.404;2022-07-06T03:39:45;22.50;46.80
7900;DHT22;3995;50.856;4.404;2022-07-06T03:42:12;22.50;46.80
7900;DHT22;3995;50.856;4.404;2022-07-06T03:44:40;22.50;46.90
7900;DHT22;3995;50.856;4.404;2022-07-06T03:47:07;22.50;46.90
7900;DHT22;3995;50.856;4.404;2022-07-06T03:49:34;22.40;46.90
7900;DHT22;3995;50.856;4.404;2022-07-06T03:52:02;22.50;47.00
7900;DHT22;3995;50.856;4.404;2022-07-06T03:54:29;22.40;47.00
7900;DHT22;3995;50.856;4.404;2022-07-06T03:56:58;22.40;47.00
7900;DHT22;3995;50.856;4.404;2022-07-06T03:59:25;22.50;47.20
7900;DHT22;3995;50.856;4.404;2022-07-06T04:01:52;22.40;47.10
7900;DHT22;3995;50.856;4.404;2022-07-06T04:04:19;22.40;47.10
7900;DHT22;3995;50.856;4.404;2022-07-06T04:06:47;22.40;47.20
7900;DHT22;3995;50.856;4.404;2022-07-06T04:09:14;22.40;47.20
7900;DHT22;3995;50.856;4.404;2022-07-06T04:11:41;22.40;47.30
7900;DHT22;3995;50.856;4.404;2022-07-06T04:14:10;22.40;47.30
7900;DHT22;3995;50.856;4.404;2022-07-06T04:16:37;22.40;47.30
7900;DHT22;3995;50.856;4.404;2022-07-06T04:19:04;22.40;47.40
7900;DHT22;3995;50.856;4.404;2022-07-06T04:21:32;22.40;47.40
7900;DHT22;3995;50.856;4.404;2022-07-06T04:23:59;22.40;47.50
7900;DHT22;3995;50.856;4.404;2022-07-06T04:26:26;22.40;47.50
7900;DHT22;3995;50.856;4.404;2022-07-06T04:28:53;22.40;47.50
7900;DHT22;3995;50.856;4.404;2022-07-06T04:31:22;22.40;47.60
7900;DHT22;3995;50.856;4.404;2022-07-06T04:33:49;22.40;47.90
7900;DHT22;3995;50.856;4.404;2022-07-06T04:36:17;22.30;47.70
7900;DHT22;3995;50.856;4.404;2022-07-06T04:38:44;22.30;47.80
7900;DHT22;3995;50.856;4.404;2022-07-06T04:41:13;22.30;47.80
7900;DHT22;3995;50.856;4.404;2022-07-06T04:43:40;22.30;47.80
7900;DHT22;3995;50.856;4.404;2022-07-06T04:46:09;22.30;47.90
7900;DHT22;3995;50.856;4.404;2022-07-06T04:48:38;22.30;48.00
7900;DHT22;3995;50.856;4.404;2022-07-06T04:51:06;22.30;48.00
7900;DHT22;3995;50.856;4.404;2022-07-06T04:53:33;22.30;48.00
7900;DHT22;3995;50.856;4.404;2022-07-06T04:55:59;22.30;48.00
7900;DHT22;3995;50.856;4.404;2022-07-06T04:58:27;22.30;48.10
7900;DHT22;3995;50.856;4.404;2022-07-06T05:00:54;22.30;48.30
7900;DHT22;3995;50.856;4.404;2022-07-06T05:03:21;22.30;48.40
7900;DHT22;3995;50.856;4.404;2022-07-06T05:05:50;22.30;48.10
7900;DHT22;3995;50.856;4.404;2022-07-06T05:08:17;22.30;48.10
7900;DHT22;3995;50.856;4.404;2022-07-06T05:10:45;22.30;48.10
7900;DHT22;3995;50.856;4.404;2022-07-06T05:13:12;22.40;47.90
7900;DHT22;3995;50.856;4.404;2022-07-06T05:15:39;22.40;47.70
7900;DHT22;3995;50.856;4.404;2022-07-06T05:18:06;22.40;47.70
7900;DHT22;3995;50.856;4.404;2022-07-06T05:20:33;22.40;47.50
7900;DHT22;3995;50.856;4.404;2022-07-06T05:23:02;22.40;47.40
7900;DHT22;3995;50.856;4.404;2022-07-06T05:25:29;22.50;47.50
7900;DHT22;3995;50.856;4.404;2022-07-06T05:27:58;22.50;47.60
7900;DHT22;3995;50.856;4.404;2022-07-06T05:30:25;22.50;47.50
7900;DHT22;3995;50.856;4.404;2022-07-06T05:32:53;22.50;47.50
7900;DHT22;3995;50.856;4.404;2022-07-06T05:35:20;22.50;47.50
7900;DHT22;3995;50.856;4.404;2022-07-06T05:37:47;22.50;47.50
7900;DHT22;3995;50.856;4.404;2022-07-06T05:40:16;22.50;47.50
7900;DHT22;3995;50.856;4.404;2022-07-06T05:42:44;22.60;47.60
7900;DHT22;3995;50.856;4.404;2022-07-06T05:45:11;22.50;47.50
7900;DHT22;3995;50.856;4.404;2022-07-06T05:47:38;22.50;47.40
7900;DHT22;3995;50.856;4.404;2022-07-06T05:50:22;22.50;48.00
7900;DHT22;3995;50.856;4.404;2022-07-06T05:52:56;22.60;47.20
7900;DHT22;3995;50.856;4.404;2022-07-06T05:55:26;22.60;47.00
7900;DHT22;3995;50.856;4.404;2022-07-06T05:57:53;22.60;47.00
7900;DHT22;3995;50.856;4.404;2022-07-06T06:00:21;22.60;47.30
7900;DHT22;3995;50.856;4.404;2022-07-06T06:02:49;22.60;47.30
7900;DHT22;3995;50.856;4.404;2022-07-06T06:05:17;22.60;47.30
7900;DHT22;3995;50.856;4.404;2022-07-06T06:07:47;22.60;47.00
7900;DHT22;3995;50.856;4.404;2022-07-06T06:10:17;22.60;47.00
7900;DHT22;3995;50.856;4.404;2022-07-06T06:12:47;22.60;47.10
7900;DHT22;3995;50.856;4.404;2022-07-06T06:15:14;22.60;47.00
7900;DHT22;3995;50.856;4.404;2022-07-06T06:17:41;22.60;47.00
7900;DHT22;3995;50.856;4.404;2022-07-06T06:20:10;22.60;46.90
7900;DHT22;3995;50.856;4.404;2022-07-06T06:22:45;22.60;47.00
7900;DHT22;3995;50.856;4.404;2022-07-06T06:25:13;22.60;46.80
7900;DHT22;3995;50.856;4.404;2022-07-06T06:27:40;22.60;46.90
7900;DHT22;3995;50.856;4.404;2022-07-06T06:30:10;22.60;46.70
7900;DHT22;3995;50.856;4.404;2022-07-06T06:32:37;22.70;46.80
7900;DHT22;3995;50.856;4.404;2022-07-06T06:35:06;22.60;46.80
7900;DHT22;3995;50.856;4.404;2022-07-06T06:37:33;22.70;46.70
7900;DHT22;3995;50.856;4.404;2022-07-06T06:40:01;22.70;46.50
7900;DHT22;3995;50.856;4.404;2022-07-06T06:42:29;22.70;46.00
7900;DHT22;3995;50.856;4.404;2022-07-06T06:44:56;22.70;46.20
7900;DHT22;3995;50.856;4.404;2022-07-06T06:47:25;22.70;45.40
7900;DHT22;3995;50.856;4.404;2022-07-06T06:49:52;22.70;45.50
7900;DHT22;3995;50.856;4.404;2022-07-06T06:52:19;22.80;45.70
7900;DHT22;3995;50.856;4.404;2022-07-06T06:54:47;22.80;45.60
7900;DHT22;3995;50.856;4.404;2022-07-06T06:57:14;22.80;45.20
7900;DHT22;3995;50.856;4.404;2022-07-06T06:59:41;22.80;44.20
7900;DHT22;3995;50.856;4.404;2022-07-06T07:02:09;22.80;44.40
7900;DHT22;3995;50.856;4.404;2022-07-06T07:04:42;22.80;44.50
7900;DHT22;3995;50.856;4.404;2022-07-06T07:07:09;22.90;44.70
7900;DHT22;3995;50.856;4.404;2022-07-06T07:09:36;22.80;44.40
7900;DHT22;3995;50.856;4.404;2022-07-06T07:12:04;22.90;44.00
7900;DHT22;3995;50.856;4.404;2022-07-06T07:14:31;22.90;43.20
7900;DHT22;3995;50.856;4.404;2022-07-06T07:16:59;22.90;43.20
7900;DHT22;3995;50.856;4.404;2022-07-06T07:19:26;22.90;43.20
7900;DHT22;3995;50.856;4.404;2022-07-06T07:21:55;22.90;43.10
7900;DHT22;3995;50.856;4.404;2022-07-06T07:24:23;22.90;43.20
7900;DHT22;3995;50.856;4.404;2022-07-06T07:26:50;22.90;42.90
7900;DHT22;3995;50.856;4.404;2022-07-06T07:29:17;22.90;42.60
7900;DHT22;3995;50.856;4.404;2022-07-06T07:31:44;22.90;42.60
7900;DHT22;3995;50.856;4.404;2022-07-06T07:34:12;22.90;42.80
7900;DHT22;3995;50.856;4.404;2022-07-06T07:36:39;22.90;42.60
7900;DHT22;3995;50.856;4.404;2022-07-06T07:39:08;22.90;42.40
7900;DHT22;3995;50.856;4.404;2022-07-06T07:41:35;23.00;42.50
7900;DHT22;3995;50.856;4.404;2022-07-06T07:44:02;23.00;42.70
7900;DHT22;3995;50.856;4.404;2022-07-06T07:46:43;23.00;42.10
7900;DHT22;3995;50.856;4.404;2022-07-06T07:49:10;23.00;42.00
7900;DHT22;3995;50.856;4.404;2022-07-06T07:51:37;23.00;41.80
7900;DHT22;3995;50.856;4.404;2022-07-06T07:54:05;23.00;42.20
7900;DHT22;3995;50.856;4.404;2022-07-06T07:56:34;23.00;42.10
7900;DHT22;3995;50.856;4.404;2022-07-06T07:59:01;23.00;41.70
7900;DHT22;3995;50.856;4.404;2022-07-06T08:01:28;23.00;41.70
7900;DHT22;3995;50.856;4.404;2022-07-06T08:03:55;23.10;41.90
7900;DHT22;3995;50.856;4.404;2022-07-06T08:06:23;23.00;41.70
7900;DHT22;3995;50.856;4.404;2022-07-06T08:08:50;23.00;41.90
7900;DHT22;3995;50.856;4.404;2022-07-06T08:11:17;23.00;42.20
7900;DHT22;3995;50.856;4.404;2022-07-06T08:13:46;23.10;42.50
7900;DHT22;3995;50.856;4.404;2022-07-06T08:16:13;23.10;42.40
7900;DHT22;3995;50.856;4.404;2022-07-06T08:18:40;23.10;42.70
7900;DHT22;3995;50.856;4.404;2022-07-06T08:21:07;23.10;42.80
7900;DHT22;3995;50.856;4.404;2022-07-06T08:23:35;23.10;43.00
7900;DHT22;3995;50.856;4.404;2022-07-06T08:26:02;23.10;43.20
7900;DHT22;3995;50.856;4.404;2022-07-06T08:28:30;23.10;43.40
7900;DHT22;3995;50.856;4.404;2022-07-06T08:30:59;23.10;43.40
7900;DHT22;3995;50.856;4.404;2022-07-06T08:33:26;23.10;43.30
7900;DHT22;3995;50.856;4.404;2022-07-06T08:35:53;23.10;43.00
7900;DHT22;3995;50.856;4.404;2022-07-06T08:38:21;23.10;43.30
7900;DHT22;3995;50.856;4.404;2022-07-06T08:40:49;23.10;43.70
7900;DHT22;3995;50.856;4.404;2022-07-06T08:43:17;23.10;43.90
7900;DHT22;3995;50.856;4.404;2022-07-06T08:45:45;23.10;43.80
7900;DHT22;3995;50.856;4.404;2022-07-06T08:48:15;23.10;43.80
7900;DHT22;3995;50.856;4.404;2022-07-06T08:50:43;23.20;43.90
7900;DHT22;3995;50.856;4.404;2022-07-06T08:53:10;23.20;43.80
7900;DHT22;3995;50.856;4.404;2022-07-06T08:55:38;23.20;43.70
7900;DHT22;3995;50.856;4.404;2022-07-06T08:58:07;23.20;43.80
7900;DHT22;3995;50.856;4.404;2022-07-06T09:00:34;23.20;44.40
7900;DHT22;3995;50.856;4.404;2022-07-06T09:03:03;23.20;44.10
7900;DHT22;3995;50.856;4.404;2022-07-06T09:05:34;23.20;43.90
7900;DHT22;3995;50.856;4.404;2022-07-06T09:08:03;23.20;43.80
7900;DHT22;3995;50.856;4.404;2022-07-06T09:10:30;23.20;44.00
7900;DHT22;3995;50.856;4.404;2022-07-06T09:13:05;23.20;44.10
7900;DHT22;3995;50.856;4.404;2022-07-06T09:15:33;23.30;43.90
7900;DHT22;3995;50.856;4.404;2022-07-06T09:18:01;23.30;44.00
7900;DHT22;3995;50.856;4.404;2022-07-06T09:20:28;23.30;43.80
7900;DHT22;3995;50.856;4.404;2022-07-06T09:22:59;23.30;43.60
7900;DHT22;3995;50.856;4.404;2022-07-06T09:25:27;23.40;43.70
7900;DHT22;3995;50.856;4.404;2022-07-06T09:27:57;23.40;43.70
7900;DHT22;3995;50.856;4.404;2022-07-06T09:30:25;23.40;43.90
7900;DHT22;3995;50.856;4.404;2022-07-06T09:32:54;23.40;43.80
7900;DHT22;3995;50.856;4.404;2022-07-06T09:35:23;23.40;43.70
7900;DHT22;3995;50.856;4.404;2022-07-06T09:38:02;23.50;43.80
7900;DHT22;3995;50.856;4.404;2022-07-06T09:40:32;23.50;43.70
7900;DHT22;3995;50.856;4.404;2022-07-06T09:43:10;23.50;43.80
7900;DHT22;3995;50.856;4.404;2022-07-06T09:45:39;23.50;43.90
7900;DHT22;3995;50.856;4.404;2022-07-06T09:48:09;23.50;43.90
7900;DHT22;3995;50.856;4.404;2022-07-06T09:50:43;23.60;43.90
7900;DHT22;3995;50.856;4.404;2022-07-06T09:53:13;23.60;43.80
7900;DHT22;3995;50.856;4.404;2022-07-06T09:55:43;23.60;43.90
7900;DHT22;3995;50.856;4.404;2022-07-06T09:58:10;23.60;43.90
7900;DHT22;3995;50.856;4.404;2022-07-06T10:00:37;23.60;43.90
7900;DHT22;3995;50.856;4.404;2022-07-06T10:03:05;23.60;44.10
7900;DHT22;3995;50.856;4.404;2022-07-06T10:05:34;23.70;44.10
7900;DHT22;3995;50.856;4.404;2022-07-06T10:08:02;23.70;43.80
7900;DHT22;3995;50.856;4.404;2022-07-06T10:10:32;23.70;43.90
7900;DHT22;3995;50.856;4.404;2022-07-06T10:12:59;23.70;43.80
7900;DHT22;3995;50.856;4.404;2022-07-06T10:15:29;23.70;43.80
7900;DHT22;3995;50.856;4.404;2022-07-06T10:17:58;23.70;43.90
7900;DHT22;3995;50.856;4.404;2022-07-06T10:20:29;23.70;43.70
7900;DHT22;3995;50.856;4.404;2022-07-06T10:22:59;23.70;43.30
7900;DHT22;3995;50.856;4.404;2022-07-06T10:25:27;23.80;43.80
7900;DHT22;3995;50.856;4.404;2022-07-06T10:27:57;23.80;43.70
7900;DHT22;3995;50.856;4.404;2022-07-06T10:30:25;23.80;43.20
7900;DHT22;3995;50.856;4.404;2022-07-06T10:32:55;23.80;43.10
7900;DHT22;3995;50.856;4.404;2022-07-06T10:35:23;23.90;43.20
7900;DHT22;3995;50.856;4.404;2022-07-06T10:38:04;23.90;43.50
7900;DHT22;3995;50.856;4.404;2022-07-06T10:40:33;23.90;43.10
7900;DHT22;3995;50.856;4.404;2022-07-06T10:43:18;23.90;43.40
7900;DHT22;3995;50.856;4.404;2022-07-06T10:45:53;23.90;43.00
7900;DHT22;3995;50.856;4.404;2022-07-06T10:48:20;23.90;42.80
7900;DHT22;3995;50.856;4.404;2022-07-06T10:50:50;23.90;42.40
7900;DHT22;3995;50.856;4.404;2022-07-06T10:53:22;23.90;42.70
7900;DHT22;3995;50.856;4.404;2022-07-06T10:55:50;23.90;42.90
7900;DHT22;3995;50.856;4.404;2022-07-06T10:58:48;23.90;43.10
7900;DHT22;3995;50.856;4.404;2022-07-06T11:01:17;24.00;43.10
7900;DHT22;3995;50.856;4.404;2022-07-06T11:03:45;23.90;43.40
7900;DHT22;3995;50.856;4.404;2022-07-06T11:06:14;24.00;43.00
7900;DHT22;3995;50.856;4.404;2022-07-06T11:08:43;24.00;43.20
7900;DHT22;3995;50.856;4.404;2022-07-06T11:11:11;24.10;43.60
7900;DHT22;3995;50.856;4.404;2022-07-06T11:13:48;24.10;43.10
7900;DHT22;3995;50.856;4.404;2022-07-06T11:16:15;24.20;43.00
7900;DHT22;3995;50.856;4.404;2022-07-06T11:18:46;24.20;42.80
7900;DHT22;3995;50.856;4.404;2022-07-06T11:21:19;24.20;43.00
7900;DHT22;3995;50.856;4.404;2022-07-06T11:23:47;24.20;42.90
7900;DHT22;3995;50.856;4.404;2022-07-06T11:26:14;24.30;42.90
7900;DHT22;3995;50.856;4.404;2022-07-06T11:28:41;24.30;43.30
7900;DHT22;3995;50.856;4.404;2022-07-06T11:31:11;24.30;43.40
7900;DHT22;3995;50.856;4.404;2022-07-06T11:33:38;24.30;43.40
7900;DHT22;3995;50.856;4.404;2022-07-06T11:36:16;24.30;43.50
7900;DHT22;3995;50.856;4.404;2022-07-06T11:38:44;24.30;43.50
7900;DHT22;3995;50.856;4.404;2022-07-06T11:41:11;24.20;43.90
7900;DHT22;3995;50.856;4.404;2022-07-06T11:43:40;24.20;43.10
7900;DHT22;3995;50.856;4.404;2022-07-06T11:46:34;24.30;43.20
7900;DHT22;3995;50.856;4.404;2022-07-06T11:49:03;24.30;43.40
7900;DHT22;3995;50.856;4.404;2022-07-06T11:51:33;24.30;43.70
7900;DHT22;3995;50.856;4.404;2022-07-06T11:54:09;24.30;43.10
7900;DHT22;3995;50.856;4.404;2022-07-06T11:56:38;24.40;42.60
7900;DHT22;3995;50.856;4.404;2022-07-06T11:59:12;24.50;42.60
7900;DHT22;3995;50.856;4.404;2022-07-06T12:01:41;24.70;42.50
7900;DHT22;3995;50.856;4.404;2022-07-06T12:04:10;24.80;42.30
7900;DHT22;3995;50.856;4.404;2022-07-06T12:06:37;24.90;42.20
7900;DHT22;3995;50.856;4.404;2022-07-06T12:09:04;25.00;42.00
7900;DHT22;3995;50.856;4.404;2022-07-06T12:11:34;25.00;41.80
7900;DHT22;3995;50.856;4.404;2022-07-06T12:14:02;25.10;41.20
7900;DHT22;3995;50.856;4.404;2022-07-06T12:16:31;25.20;41.30
7900;DHT22;3995;50.856;4.404;2022-07-06T12:19:02;25.50;41.50
7900;DHT22;3995;50.856;4.404;2022-07-06T12:21:31;25.70;40.20
7900;DHT22;3995;50.856;4.404;2022-07-06T12:23:58;25.90;39.80
7900;DHT22;3995;50.856;4.404;2022-07-06T12:26:27;26.00;39.80
7900;DHT22;3995;50.856;4.404;2022-07-06T12:29:04;26.10;39.60
7900;DHT22;3995;50.856;4.404;2022-07-06T12:31:35;26.40;39.40
7900;DHT22;3995;50.856;4.404;2022-07-06T12:34:04;26.60;39.00
7900;DHT22;3995;50.856;4.404;2022-07-06T12:36:42;26.90;38.90
7900;DHT22;3995;50.856;4.404;2022-07-06T12:39:11;26.90;38.40
7900;DHT22;3995;50.856;4.404;2022-07-06T12:41:44;26.90;38.50
7900;DHT22;3995;50.856;4.404;2022-07-06T12:44:13;26.90;38.60
7900;DHT22;3995;50.856;4.404;2022-07-06T12:46:41;26.80;39.30
7900;DHT22;3995;50.856;4.404;2022-07-06T12:49:14;26.70;38.70
7900;DHT22;3995;50.856;4.404;2022-07-06T12:51:55;26.60;38.70
7900;DHT22;3995;50.856;4.404;2022-07-06T12:54:24;26.40;38.80
7900;DHT22;3995;50.856;4.404;2022-07-06T12:57:09;26.50;39.30
7900;DHT22;3995;50.856;4.404;2022-07-06T12:59:40;27.00;39.30
7900;DHT22;3995;50.856;4.404;2022-07-06T13:02:08;27.40;38.90
7900;DHT22;3995;50.856;4.404;2022-07-06T13:04:37;27.40;38.70
7900;DHT22;3995;50.856;4.404;2022-07-06T13:07:05;27.20;38.90
7900;DHT22;3995;50.856;4.404;2022-07-06T13:09:32;27.00;39.30
7900;DHT22;3995;50.856;4.404;2022-07-06T13:11:59;26.80;39.50
7900;DHT22;3995;50.856;4.404;2022-07-06T13:14:27;26.60;39.90
7900;DHT22;3995;50.856;4.404;2022-07-06T13:16:54;26.50;40.00
7900;DHT22;3995;50.856;4.404;2022-07-06T13:19:21;26.30;40.20
7900;DHT22;3995;50.856;4.404;2022-07-06T13:21:49;26.20;40.00
7900;DHT22;3995;50.856;4.404;2022-07-06T13:24:16;26.10;40.20
7900;DHT22;3995;50.856;4.404;2022-07-06T13:26:44;26.00;40.50
7900;DHT22;3995;50.856;4.404;2022-07-06T13:29:12;25.90;40.70
7900;DHT22;3995;50.856;4.404;2022-07-06T13:31:40;26.00;40.70
7900;DHT22;3995;50.856;4.404;2022-07-06T13:34:08;26.00;40.50
7900;DHT22;3995;50.856;4.404;2022-07-06T13:36:35;26.00;40.70
7900;DHT22;3995;50.856;4.404;2022-07-06T13:39:05;26.20;41.10
7900;DHT22;3995;50.856;4.404;2022-07-06T13:41:34;26.40;40.70
7900;DHT22;3995;50.856;4.404;2022-07-06T13:44:01;26.50;40.50
7900;DHT22;3995;50.856;4.404;2022-07-06T13:46:29;26.60;40.50
7900;DHT22;3995;50.856;4.404;2022-07-06T13:48:57;26.70;40.00
7900;DHT22;3995;50.856;4.404;2022-07-06T13:51:25;26.80;39.60
7900;DHT22;3995;50.856;4.404;2022-07-06T13:53:54;27.00;39.40
7900;DHT22;3995;50.856;4.404;2022-07-06T13:56:23;27.00;39.20
7900;DHT22;3995;50.856;4.404;2022-07-06T13:58:50;27.00;39.10
7900;DHT22;3995;50.856;4.404;2022-07-06T14:01:18;27.00;39.50
7900;DHT22;3995;50.856;4.404;2022-07-06T14:03:45;27.00;39.70
7900;DHT22;3995;50.856;4.404;2022-07-06T14:06:12;27.10;39.30
7900;DHT22;3995;50.856;4.404;2022-07-06T14:08:40;27.10;39.30
7900;DHT22;3995;50.856;4.404;2022-07-06T14:11:08;27.10;39.40
7900;DHT22;3995;50.856;4.404;2022-07-06T14:13:38;27.00;39.40
7900;DHT22;3995;50.856;4.404;2022-07-06T14:16:06;26.90;39.60
7900;DHT22;3995;50.856;4.404;2022-07-06T14:18:33;26.80;40.40
7900;DHT22;3995;50.856;4.404;2022-07-06T14:21:00;26.70;39.90
7900;DHT22;3995;50.856;4.404;2022-07-06T14:23:29;26.60;40.00
7900;DHT22;3995;50.856;4.404;2022-07-06T14:25:57;26.60;40.00
7900;DHT22;3995;50.856;4.404;2022-07-06T14:28:24;26.50;39.90
7900;DHT22;3995;50.856;4.404;2022-07-06T14:30:53;26.40;40.10
7900;DHT22;3995;50.856;4.404;2022-07-06T14:33:20;26.30;40.30
7900;DHT22;3995;50.856;4.404;2022-07-06T14:35:49;26.30;40.40
7900;DHT22;3995;50.856;4.404;2022-07-06T14:38:18;26.20;40.50
7900;DHT22;3995;50.856;4.404;2022-07-06T14:40:46;26.10;40.30
7900;DHT22;3995;50.856;4.404;2022-07-06T14:43:14;26.10;40.50
7900;DHT22;3995;50.856;4.404;2022-07-06T14:45:43;26.10;41.00
7900;DHT22;3995;50.856;4.404;2022-07-06T14:48:12;26.00;40.90
7900;DHT22;3995;50.856;4.404;2022-07-06T14:50:39;26.00;40.90
7900;DHT22;3995;50.856;4.404;2022-07-06T14:53:07;26.00;40.90
7900;DHT22;3995;50.856;4.404;2022-07-06T14:55:34;26.00;41.10
7900;DHT22;3995;50.856;4.404;2022-07-06T14:58:02;26.00;41.10
7900;DHT22;3995;50.856;4.404;2022-07-06T15:00:29;26.00;41.20
7900;DHT22;3995;50.856;4.404;2022-07-06T15:02:57;26.00;41.40
7900;DHT22;3995;50.856;4.404;2022-07-06T15:05:25;26.00;41.60
7900;DHT22;3995;50.856;4.404;2022-07-06T15:07:53;26.20;41.30
7900;DHT22;3995;50.856;4.404;2022-07-06T15:10:20;26.30;41.40
7900;DHT22;3995;50.856;4.404;2022-07-06T15:12:47;26.40;41.20
7900;DHT22;3995;50.856;4.404;2022-07-06T15:15:15;26.50;41.30
7900;DHT22;3995;50.856;4.404;2022-07-06T15:17:49;26.50;41.40
7900;DHT22;3995;50.856;4.404;2022-07-06T15:20:19;26.60;41.10
7900;DHT22;3995;50.856;4.404;2022-07-06T15:22:49;26.50;41.10
7900;DHT22;3995;50.856;4.404;2022-07-06T15:25:16;26.50;41.10
7900;DHT22;3995;50.856;4.404;2022-07-06T15:27:44;26.40;41.20
7900;DHT22;3995;50.856;4.404;2022-07-06T15:30:12;26.40;41.50
7900;DHT22;3995;50.856;4.404;2022-07-06T15:32:40;26.30;41.40
7900;DHT22;3995;50.856;4.404;2022-07-06T15:35:07;26.30;41.50
7900;DHT22;3995;50.856;4.404;2022-07-06T15:37:35;26.30;41.60
7900;DHT22;3995;50.856;4.404;2022-07-06T15:40:13;26.20;41.50
7900;DHT22;3995;50.856;4.404;2022-07-06T15:42:49;26.20;41.60
7900;DHT22;3995;50.856;4.404;2022-07-06T15:45:17;26.10;41.60
7900;DHT22;3995;50.856;4.404;2022-07-06T15:47:45;26.10;41.60
7900;DHT22;3995;50.856;4.404;2022-07-06T15:50:13;26.10;41.60
7900;DHT22;3995;50.856;4.404;2022-07-06T15:52:41;26.10;41.90
7900;DHT22;3995;50.856;4.404;2022-07-06T15:55:10;26.10;41.90
7900;DHT22;3995;50.856;4.404;2022-07-06T15:57:37;26.10;41.70
7900;DHT22;3995;50.856;4.404;2022-07-06T16:00:05;26.10;41.80
7900;DHT22;3995;50.856;4.404;2022-07-06T16:02:32;26.20;41.70
7900;DHT22;3995;50.856;4.404;2022-07-06T16:05:00;26.20;41.60
7900;DHT22;3995;50.856;4.404;2022-07-06T16:07:27;26.30;41.90
7900;DHT22;3995;50.856;4.404;2022-07-06T16:09:54;26.30;41.70